Pickle Lake, Ontario

Past 24 Hour Conditions

Date / Time
(EST)
Conditions Temp
(°F)
Humidity
(%)
Dew Point
(°F)
Wind
(mph)
Pressure
(inches)
Vis
(mi)
Wind Chill
30 October 2014
14:00 N/A 28 83 23 N 7 30.2 N/A 20
13:00 N/A 27   84 23 NNW 8 30.2 N/A 19
12:00 N/A 27   85 23 N 9 30.1 N/A 18
11:00 N/A 27   91 25 N 8 30.1 N/A 18
10:00 N/A 28 91 25 NNW 7 gust 18 30.1 N/A 20
9:00 N/A 28 95 27 NW 5 30.1 N/A 22
8:00 N/A 28 94 27 NW 6 30.1 N/A 21
7:00 N/A 28 96 27 WNW 6 30.1 N/A 22
6:00 N/A 28 94 27 NNW 2 30.1 N/A 26
5:00 N/A 28 96 27 calm 30.1 N/A 26
4:00 N/A 28 97 27 calm 30.1 N/A 27
3:00 N/A 28 97 27 SSW 3 30.1 N/A 25
2:00 N/A 28 96 27 calm 30.1 N/A 26
1:00 N/A 28 98 27 calm 30.1 N/A 26
00:00 N/A 28 95 27 N 2 30.1 N/A 26
29 October 2014
23:00 N/A 29 92 27 WNW 3 30.1 N/A 26
22:00 N/A 29 91 27 NW 3 30.1 N/A 26
21:00 N/A 29 93 27 NNW 4 30.1 N/A 25
20:00 N/A 29 94 28 NNW 4 30.1 N/A 25
19:00 N/A 29 95 28 NW 4 30.1 N/A 25
18:00 N/A 30 96 28 NNW 6 30.1 N/A 23
17:00 N/A 30 94 29 NNW 5 30.0 N/A 25
16:00 N/A 32   84 27 NW 6 30.0 N/A 26
15:00 N/A 30 92 27 NW 8 30.0 N/A 22
14:00 N/A 30 82 25 WNW 7 30.0 N/A 23
N/A Not available
↑ Highest temperature
↓ Lowest temperature
* Value not significant.

If you require additional historical weather information, please visit Climate Data Online.

Date modified: